Time;durP1;ratioP1;P1;durP2;ratioP2;P2;SDS_P1;SDS_P2;PMS_P1;PMS_P2;Temp;Humidity;BMP_temperature;BMP_pressure;BME280_temperature;BME280_humidity;BME280_pressure;Samples;Min_cycle;Max_cycle;Signal;HPM_P1;HPM_P2
2022/08/28 00:06:55;;;;;;;10.20;5.00;;;17.30;95.00;;;;;;2618370;54;20396;-83
2022/08/28 00:12:45;;;;;;;8.60;5.87;;;17.20;96.10;;;;;;2618334;54;20417;-83
2022/08/28 00:18:33;;;;;;;12.70;6.03;;;17.10;97.30;;;;;;2616581;54;20400;-78
2022/08/28 00:24:21;;;;;;;7.77;5.40;;;17.00;98.80;;;;;;2617626;39;20791;-77
2022/08/28 00:30:09;;;;;;;14.20;6.30;;;16.90;99.90;;;;;;2616775;54;20199;-78
2022/08/28 00:35:59;;;;;;;16.30;5.90;;;16.90;99.90;;;;;;2616978;54;20409;-77
2022/08/28 00:41:49;;;;;;;9.17;6.23;;;16.80;99.90;;;;;;2617428;54;20416;-77
2022/08/28 00:47:38;;;;;;;7.87;5.40;;;16.70;99.90;;;;;;2617198;54;20384;-77
2022/08/28 00:53:28;;;;;;;9.67;6.27;;;16.60;99.90;;;;;;2617285;54;20859;-77
2022/08/28 00:59:19;;;;;;;11.50;6.37;;;16.50;99.90;;;;;;2617286;39;20762;-76
2022/08/28 01:02:23;;;;;;;9.50;6.40;;;16.40;99.90;;;;;;2616648;47;20408;-86
2022/08/28 01:04:49;;;;;;;18.80;7.30;;;16.40;99.90;;;;;;2617798;54;20413;-84
2022/08/28 01:10:40;;;;;;;11.30;6.37;;;16.30;99.90;;;;;;2618755;54;20973;-83
2022/08/28 01:16:29;;;;;;;7.30;5.67;;;16.10;99.90;;;;;;2619500;54;20404;-83
2022/08/28 01:28:41;;;;;;;11.87;7.60;;;16.00;99.90;;;;;;2618972;54;20388;-84
2022/08/28 01:34:29;;;;;;;8.40;6.40;;;15.80;99.90;;;;;;2619307;54;20138;-85
2022/08/28 01:40:27;;;;;;;8.93;6.70;;;15.70;99.90;;;;;;2619773;54;20538;-84
2022/08/28 01:46:15;;;;;;;10.73;5.50;;;15.50;99.90;;;;;;2620349;54;20335;-85
2022/08/28 01:52:03;;;;;;;18.87;6.80;;;15.40;99.90;;;;;;2620143;54;20119;-84
2022/08/28 01:57:53;;;;;;;12.90;6.53;;;15.40;99.90;;;;;;2621030;54;20403;-84
2022/08/28 02:07:03;;;;;;;11.07;6.97;;;15.30;99.90;;;;;;2618887;54;20379;-78
2022/08/28 02:12:54;;;;;;;11.90;7.13;;;15.20;99.90;;;;;;2618293;54;20388;-78
2022/08/28 02:18:42;;;;;;;16.07;7.23;;;15.20;99.90;;;;;;2618973;54;20349;-78
2022/08/28 02:24:29;;;;;;;15.90;7.30;;;15.10;99.90;;;;;;2618097;54;20406;-78
2022/08/28 02:30:17;;;;;;;15.43;7.97;;;15.10;99.90;;;;;;2618019;54;20118;-78
2022/08/28 02:36:08;;;;;;;16.40;7.37;;;14.90;99.90;;;;;;2618256;54;20122;-78
2022/08/28 02:41:56;;;;;;;8.43;6.00;;;14.90;99.90;;;;;;2618480;54;20443;-78
2022/08/28 02:47:45;;;;;;;9.93;6.37;;;14.70;99.90;;;;;;2618995;54;20933;-78
2022/08/28 02:53:34;;;;;;;12.93;8.90;;;14.70;99.90;;;;;;2618256;39;20792;-77
2022/08/28 02:59:22;;;;;;;9.50;7.97;;;14.60;99.90;;;;;;2617969;39;21207;-76
2022/08/28 03:02:23;;;;;;;11.17;7.77;;;14.60;99.90;;;;;;2617008;47;20424;-78
2022/08/28 03:04:49;;;;;;;9.37;6.83;;;14.60;99.90;;;;;;2617081;51;20178;-78
2022/08/28 03:10:36;;;;;;;11.70;7.07;;;14.50;99.90;;;;;;2617393;46;20434;-79
2022/08/28 03:16:24;;;;;;;9.40;6.97;;;14.40;99.90;;;;;;2624544;54;20119;-79
2022/08/28 03:22:12;;;;;;;10.27;7.53;;;14.40;99.90;;;;;;2626492;54;20118;-84
2022/08/28 03:28:00;;;;;;;16.03;8.13;;;14.40;99.90;;;;;;2626869;54;20210;-83
2022/08/28 03:33:49;;;;;;;12.10;7.77;;;14.40;99.90;;;;;;2618556;39;20437;-76
2022/08/28 03:39:36;;;;;;;18.53;8.30;;;14.50;99.90;;;;;;2618675;39;20765;-77
2022/08/28 03:45:24;;;;;;;14.87;7.33;;;14.60;99.90;;;;;;2617523;54;20142;-80
2022/08/28 03:51:15;;;;;;;15.80;7.40;;;14.70;99.90;;;;;;2617844;39;20202;-77
2022/08/28 03:57:03;;;;;;;15.23;7.40;;;14.80;99.90;;;;;;2624468;54;20404;-83
2022/08/28 04:06:57;;;;;;;17.00;8.93;;;14.90;99.90;;;;;;2620370;54;20426;-82
2022/08/28 04:12:45;;;;;;;12.43;6.77;;;14.90;99.90;;;;;;2620265;54;20415;-83
2022/08/28 04:18:34;;;;;;;9.97;6.80;;;14.80;99.90;;;;;;2617499;54;20379;-78
2022/08/28 04:24:22;;;;;;;10.27;8.20;;;14.80;99.90;;;;;;2617189;54;20407;-79
2022/08/28 04:30:11;;;;;;;12.53;7.00;;;14.70;99.90;;;;;;2617004;54;20133;-77
2022/08/28 04:36:05;;;;;;;10.73;7.57;;;14.70;99.90;;;;;;2616800;54;20411;-78
2022/08/28 04:41:54;;;;;;;11.73;6.90;;;14.70;99.90;;;;;;2616994;54;20444;-78
2022/08/28 04:47:42;;;;;;;11.47;7.10;;;14.60;99.90;;;;;;2617332;54;20519;-77
2022/08/28 04:53:30;;;;;;;11.27;7.00;;;14.50;99.90;;;;;;2616762;54;20256;-75
2022/08/28 04:59:17;;;;;;;8.67;7.20;;;14.50;99.90;;;;;;2616986;54;20651;-83
2022/08/28 05:02:21;;;;;;;18.33;9.53;;;14.60;99.90;;;;;;2617455;54;20394;-82
2022/08/28 05:04:48;;;;;;;13.50;6.53;;;14.60;99.90;;;;;;2617655;54;20208;-83
2022/08/28 05:10:38;;;;;;;9.73;7.10;;;14.60;99.90;;;;;;2618524;54;20948;-83
2022/08/28 05:16:26;;;;;;;13.40;6.93;;;14.80;99.90;;;;;;2618504;54;20335;-83
2022/08/28 05:22:13;;;;;;;12.50;6.90;;;15.00;99.90;;;;;;2618308;54;20130;-84
2022/08/28 05:28:01;;;;;;;6.80;6.07;;;15.10;99.90;;;;;;2618568;54;20243;-81
2022/08/28 05:33:51;;;;;;;8.80;7.37;;;15.50;99.90;;;;;;2616480;39;20765;-77
2022/08/28 05:39:39;;;;;;;10.73;7.60;;;15.60;99.90;;;;;;2618096;54;20358;-84
2022/08/28 05:45:27;;;;;;;15.37;6.87;;;15.60;99.90;;;;;;2617618;54;20127;-84
2022/08/28 05:51:20;;;;;;;9.77;7.10;;;15.60;99.90;;;;;;2617915;54;20392;-83
2022/08/28 05:57:14;;;;;;;12.00;7.13;;;15.60;99.90;;;;;;2617686;54;20368;-83
2022/08/28 06:06:56;;;;;;;10.47;7.30;;;15.80;99.90;;;;;;2618765;54;20399;-82
2022/08/28 06:12:44;;;;;;;8.00;6.10;;;15.80;99.90;;;;;;2618699;54;20391;-85
2022/08/28 06:18:32;;;;;;;7.20;6.23;;;16.20;99.90;;;;;;2617015;39;20541;-78
2022/08/28 06:24:20;;;;;;;9.73;5.87;;;16.40;99.90;;;;;;2616519;54;20131;-77
2022/08/28 06:30:09;;;;;;;11.27;5.83;;;16.80;99.90;;;;;;2618086;54;20393;-75
2022/08/28 06:35:56;;;;;;;8.93;6.70;;;16.90;99.90;;;;;;2617870;54;20419;-76
2022/08/28 06:41:44;;;;;;;13.97;6.93;;;17.00;99.90;;;;;;2617687;54;20161;-77
2022/08/28 06:47:32;;;;;;;9.33;5.60;;;17.40;99.90;;;;;;2617269;54;20148;-77
2022/08/28 06:53:23;;;;;;;10.27;5.10;;;17.30;99.90;;;;;;2618220;54;20644;-76
2022/08/28 06:59:11;;;;;;;7.50;6.13;;;17.60;99.90;;;;;;2618132;54;20409;-75
2022/08/28 07:05:08;;;;;;;9.80;6.00;;;17.60;99.90;;;;;;2616146;54;20145;-76
2022/08/28 07:10:57;;;;;;;8.30;6.90;;;18.40;99.90;;;;;;2615740;54;20943;-77
2022/08/28 07:16:44;;;;;;;7.93;7.13;;;18.00;99.90;;;;;;2615658;54;20385;-77
2022/08/28 07:22:32;;;;;;;7.90;5.77;;;18.50;97.40;;;;;;2616118;54;20383;-76
2022/08/28 07:25:56;;;;;;;6.63;5.63;;;18.90;94.40;;;;;;2616777;39;20822;-80
2022/08/28 07:31:47;;;;;;;9.70;5.80;;;20.60;55.60;;;;;;2615778;54;20408;-76
2022/08/28 07:37:35;;;;;;;13.43;6.90;;;20.50;51.50;;;;;;2617328;54;20403;-83
2022/08/28 07:49:30;;;;;;;7.00;6.07;;;20.20;54.90;;;;;;2616784;54;20412;-79
2022/08/28 07:55:18;;;;;;;7.30;6.17;;;19.80;58.40;;;;;;2620262;54;20354;-85
2022/08/28 08:01:06;;;;;;;7.73;6.60;;;19.20;62.10;;;;;;2619035;39;20560;-86
2022/08/28 08:10:17;;;;;;;8.50;6.03;;;18.80;71.20;;;;;;2618313;54;20446;-86
2022/08/28 08:16:11;;;;;;;6.53;5.73;;;18.70;68.60;;;;;;2618873;54;20431;-84
2022/08/28 08:22:00;;;;;;;8.17;6.30;;;19.10;58.10;;;;;;2616512;54;20375;-77
2022/08/28 08:27:49;;;;;;;12.50;6.30;;;21.00;44.20;;;;;;2617683;39;20833;-77
2022/08/28 08:33:41;;;;;;;9.30;6.57;;;21.40;36.00;;;;;;2616392;54;20479;-78
2022/08/28 08:39:29;;;;;;;7.33;6.10;;;21.40;32.90;;;;;;2617001;54;20390;-78
2022/08/28 08:45:22;;;;;;;6.40;5.80;;;21.50;29.60;;;;;;2617335;54;20129;-78
2022/08/28 08:57:44;;;;;;;6.47;5.87;;;21.30;28.70;;;;;;2616330;39;20790;-78
2022/08/28 09:03:46;;;;;;;6.23;5.63;;;21.60;25.80;;;;;;2614904;54;20530;-83
2022/08/28 09:22:17;;;;;;;10.50;6.27;;;22.60;18.80;;;;;;2617278;54;20455;-83
2022/08/28 09:28:08;;;;;;;6.50;5.90;;;22.20;20.60;;;;;;2615897;54;20453;-82
2022/08/28 09:46:50;;;;;;;7.00;6.30;;;23.20;13.80;;;;;;2618263;54;20387;-82
2022/08/28 09:52:38;;;;;;;6.80;6.20;;;24.10;12.20;;;;;;2618210;54;20413;-82
2022/08/28 10:05:09;;;;;;;8.20;7.03;;;23.30;15.50;;;;;;2619213;54;20403;-82
2022/08/28 10:24:19;;;;;;;7.10;6.30;;;24.00;13.20;;;;;;2620944;54;20418;-84
2022/08/28 10:30:14;;;;;;;7.30;6.60;;;24.40;10.60;;;;;;2623473;39;20758;-85
2022/08/28 11:01:49;;;;;;;7.50;7.00;;;24.90;6.50;;;;;;2626360;39;20649;-87
2022/08/28 11:11:00;;;;;;;7.47;6.47;;;23.60;3.40;;;;;;2619998;54;20431;-82
2022/08/28 11:16:48;;;;;;;7.37;6.80;;;24.30;7.10;;;;;;2621764;54;20379;-85
2022/08/28 11:22:38;;;;;;;8.27;5.90;;;23.90;6.20;;;;;;2619878;54;20418;-86
2022/08/28 11:28:41;;;;;;;7.60;6.77;;;25.20;5.20;;;;;;2621443;54;20388;-84
2022/08/28 11:34:58;;;;;;;7.50;6.60;;;24.60;7.40;;;;;;2621060;54;20421;-84
2022/08/28 11:57:55;;;;;;;6.50;5.90;;;26.70;1.40;;;;;;2623470;54;20443;-84
2022/08/28 12:10:25;;;;;;;6.90;6.30;;;26.60;1.50;;;;;;2621605;54;20440;-86
2022/08/28 12:16:13;;;;;;;7.90;7.30;;;25.40;2.20;;;;;;2621030;54;20985;-84
2022/08/28 12:41:18;;;;;;;6.13;5.60;;;26.00;1.00;;;;;;2619636;54;21357;-83
2022/08/28 12:47:24;;;;;;;10.70;5.23;;;26.70;1.00;;;;;;2619336;54;20394;-83
2022/08/28 12:53:15;;;;;;;6.33;5.83;;;26.10;1.00;;;;;;2620887;54;20425;-80
2022/08/28 12:59:21;;;;;;;12.17;5.20;;;25.80;1.00;;;;;;2614328;54;20406;-75
2022/08/28 13:05:10;;;;;;;6.43;5.83;;;26.60;1.00;;;;;;2614983;54;20412;-75
2022/08/28 13:10:58;;;;;;;6.90;5.33;;;26.10;1.00;;;;;;2615396;54;20368;-77
2022/08/28 13:16:47;;;;;;;6.77;5.43;;;27.00;1.00;;;;;;2615206;54;20136;-77
2022/08/28 13:22:40;;;;;;;9.20;5.83;;;27.10;1.00;;;;;;2615972;54;20440;-77
2022/08/28 13:28:28;;;;;;;5.43;5.03;;;26.30;1.00;;;;;;2615747;54;20387;-75
2022/08/28 13:34:16;;;;;;;5.13;4.70;;;27.00;1.00;;;;;;2616771;54;20137;-77
2022/08/28 13:40:04;;;;;;;5.10;4.80;;;27.20;1.00;;;;;;2614846;54;20122;-77
2022/08/28 13:45:52;;;;;;;5.60;5.20;;;26.30;1.00;;;;;;2615138;54;20929;-77
2022/08/28 13:51:40;;;;;;;5.40;4.93;;;25.50;1.00;;;;;;2616293;54;20413;-77
2022/08/28 13:57:28;;;;;;;5.67;5.00;;;26.70;1.00;;;;;;2615822;54;20623;-76
2022/08/28 14:06:17;;;;;;;5.10;4.70;;;26.90;1.00;;;;;;2615345;47;20869;-77
2022/08/28 14:08:44;;;;;;;6.47;4.50;;;27.20;1.00;;;;;;2615099;39;20848;-77
2022/08/28 14:14:33;;;;;;;5.23;4.83;;;26.10;1.00;;;;;;2615957;54;20401;-77
2022/08/28 14:20:21;;;;;;;4.70;4.30;;;26.90;1.00;;;;;;2615798;54;20401;-76
2022/08/28 14:26:08;;;;;;;7.90;4.93;;;26.90;1.00;;;;;;2616549;54;20133;-77
2022/08/28 14:31:58;;;;;;;6.07;4.90;;;27.70;1.00;;;;;;2615337;54;20133;-78
2022/08/28 14:37:46;;;;;;;5.40;5.00;;;27.70;1.00;;;;;;2615497;54;20430;-76
2022/08/28 14:43:33;;;;;;;5.33;4.60;;;27.80;1.00;;;;;;2615182;54;20165;-77
2022/08/28 14:49:21;;;;;;;5.10;4.63;;;27.30;1.00;;;;;;2615503;54;20164;-77
2022/08/28 14:55:13;;;;;;;7.23;6.53;;;28.90;1.00;;;;;;2616401;54;20498;-78
2022/08/28 15:01:01;;;;;;;6.00;5.57;;;28.70;1.00;;;;;;2616685;54;20423;-77
2022/08/28 15:10:49;;;;;;;9.33;6.03;;;28.70;1.00;;;;;;2616150;54;20429;-78
2022/08/28 15:16:40;;;;;;;7.93;5.40;;;27.70;1.00;;;;;;2618669;54;20403;-81
2022/08/28 15:22:28;;;;;;;6.20;5.60;;;28.70;1.00;;;;;;2618680;54;20394;-82
2022/08/28 15:28:16;;;;;;;6.43;5.03;;;29.30;1.00;;;;;;2617646;54;20134;-80
2022/08/28 15:34:07;;;;;;;5.40;5.00;;;29.00;1.00;;;;;;2619262;54;20118;-79
2022/08/28 15:52:35;;;;;;;7.20;6.50;;;28.50;1.00;;;;;;2619076;54;20391;-80
2022/08/28 15:58:23;;;;;;;6.87;6.17;;;29.00;1.00;;;;;;2617831;54;20398;-81
2022/08/28 16:04:11;;;;;;;6.80;6.30;;;28.90;1.00;;;;;;2617546;54;20243;-80
2022/08/28 16:13:21;;;;;;;7.03;6.10;;;25.90;1.00;;;;;;2618528;54;20415;-81
2022/08/28 16:19:09;;;;;;;5.90;5.40;;;27.70;1.00;;;;;;2619139;54;20404;-82
2022/08/28 16:24:57;;;;;;;7.47;6.10;;;28.30;1.00;;;;;;2618261;54;20655;-82
2022/08/28 16:30:45;;;;;;;5.27;4.87;;;28.20;1.00;;;;;;2624940;54;20129;-86
2022/08/28 16:36:34;;;;;;;6.60;6.00;;;27.20;1.00;;;;;;2622352;54;20196;-85
2022/08/28 16:42:23;;;;;;;8.30;5.03;;;26.80;1.00;;;;;;2623740;46;20411;-84
2022/08/28 16:48:13;;;;;;;5.53;5.00;;;26.80;1.00;;;;;;2624499;54;20412;-85
2022/08/28 16:54:04;;;;;;;5.43;5.03;;;27.40;1.00;;;;;;2623949;31;20844;-84
2022/08/28 16:59:57;;;;;;;6.07;5.53;;;27.70;1.00;;;;;;2625873;54;20406;-85
2022/08/28 17:05:45;;;;;;;6.03;5.60;;;25.30;1.00;;;;;;2626898;54;20395;-80
2022/08/28 17:27:17;;;;;;;6.47;5.77;;;22.10;1.00;;;;;;2626539;54;20941;-85
2022/08/28 17:33:05;;;;;;;5.90;5.27;;;21.70;1.10;;;;;;2623988;54;20421;-87
2022/08/28 17:38:53;;;;;;;8.10;5.40;;;21.60;1.40;;;;;;2622756;54;20408;-85
2022/08/28 17:44:41;;;;;;;5.83;5.33;;;21.40;2.30;;;;;;2619051;39;20606;-88
2022/08/28 17:50:28;;;;;;;5.23;4.93;;;21.20;2.30;;;;;;2619911;54;20458;-82
2022/08/28 17:56:15;;;;;;;10.13;5.23;;;21.00;3.10;;;;;;2620236;54;20156;-86
2022/08/28 18:02:03;;;;;;;6.83;5.83;;;20.80;3.80;;;;;;2619483;54;20130;-85
2022/08/28 18:05:07;;;;;;;6.83;6.17;;;20.70;4.20;;;;;;2618232;47;20428;-84
2022/08/28 18:07:32;;;;;;;7.00;6.30;;;20.60;4.00;;;;;;2619000;47;20424;-86
2022/08/28 18:10:20;;;;;;;8.20;6.17;;;20.50;4.10;;;;;;2619998;54;20409;-82
2022/08/28 18:12:51;;;;;;;10.43;5.57;;;20.40;4.30;;;;;;2620860;39;20591;-85
2022/08/28 18:31:32;;;;;;;6.13;5.53;;;19.80;6.10;;;;;;2619823;54;20409;-86
2022/08/28 18:37:20;;;;;;;6.33;5.43;;;19.60;7.10;;;;;;2620389;54;20157;-86
2022/08/28 18:43:08;;;;;;;7.33;5.27;;;19.40;7.20;;;;;;2621059;54;20430;-80
2022/08/28 18:48:55;;;;;;;5.43;4.97;;;19.30;7.30;;;;;;2619155;54;20425;-83
2022/08/28 18:54:43;;;;;;;5.60;5.20;;;19.20;7.90;;;;;;2621562;54;20240;-85
2022/08/28 19:00:31;;;;;;;6.57;5.53;;;19.00;8.50;;;;;;2623001;54;20103;-87
2022/08/28 19:06:19;;;;;;;5.97;5.47;;;18.80;9.40;;;;;;2620368;54;20394;-85
2022/08/28 19:15:35;;;;;;;7.00;4.83;;;18.60;9.60;;;;;;2621646;39;20852;-82
2022/08/28 19:21:23;;;;;;;6.10;5.70;;;18.50;9.70;;;;;;2621783;54;20379;-86
2022/08/28 19:27:11;;;;;;;6.80;5.63;;;18.40;9.60;;;;;;2622287;54;20158;-85
2022/08/28 19:33:02;;;;;;;6.00;5.50;;;18.30;9.80;;;;;;2621334;54;20695;-84
2022/08/28 19:38:52;;;;;;;7.40;6.10;;;18.20;11.30;;;;;;2619418;54;20505;-78
2022/08/28 19:44:40;;;;;;;5.07;4.67;;;18.00;11.40;;;;;;2618548;54;20394;-82
2022/08/28 19:50:28;;;;;;;5.90;5.43;;;17.90;11.70;;;;;;2619405;54;20383;-80
2022/08/28 19:56:21;;;;;;;6.33;5.50;;;17.70;13.00;;;;;;2618892;54;20973;-80
2022/08/28 20:02:10;;;;;;;6.50;6.00;;;17.70;13.80;;;;;;2619004;54;20368;-78
2022/08/28 20:07:58;;;;;;;9.10;5.40;;;17.70;15.70;;;;;;2619144;39;20715;-80
2022/08/28 20:11:03;;;;;;;5.93;5.43;;;17.50;16.80;;;;;;2618261;47;20382;-79
2022/08/28 20:13:30;;;;;;;6.90;6.23;;;17.40;17.90;;;;;;2619705;54;20195;-80
2022/08/28 20:26:02;;;;;;;5.37;4.83;;;17.40;23.00;;;;;;2618207;54;20495;-79
2022/08/28 20:31:49;;;;;;;5.73;4.80;;;17.30;24.80;;;;;;2617111;54;20128;-78
2022/08/28 20:37:37;;;;;;;5.50;4.70;;;17.10;26.70;;;;;;2614883;54;20362;-79
2022/08/28 20:43:25;;;;;;;4.70;4.33;;;17.10;29.70;;;;;;2615982;54;20397;-78
2022/08/28 20:49:13;;;;;;;6.57;5.20;;;17.10;32.50;;;;;;2614851;54;20299;-80
2022/08/28 20:55:00;;;;;;;4.73;4.43;;;16.90;36.00;;;;;;2615580;54;20395;-79
2022/08/28 21:00:48;;;;;;;5.33;4.83;;;16.80;38.20;;;;;;2619187;31;20557;-79
2022/08/28 21:06:37;;;;;;;4.93;4.53;;;16.70;41.10;;;;;;2619035;54;20403;-78
2022/08/28 21:15:46;;;;;;;10.33;4.90;;;16.60;46.20;;;;;;2618453;54;20430;-79
2022/08/28 21:21:35;;;;;;;4.90;4.40;;;16.40;50.70;;;;;;2617131;54;20124;-79
2022/08/28 21:27:23;;;;;;;6.50;4.77;;;16.30;55.60;;;;;;2618072;54;20930;-81
2022/08/28 21:33:11;;;;;;;5.40;4.70;;;16.10;59.10;;;;;;2616862;54;20392;-82
2022/08/28 21:38:59;;;;;;;5.40;4.30;;;16.00;67.20;;;;;;2617692;54;20147;-81
2022/08/28 21:44:47;;;;;;;4.80;4.40;;;15.70;72.80;;;;;;2616496;54;20190;-78
2022/08/28 21:50:35;;;;;;;4.93;4.63;;;15.70;77.50;;;;;;2617589;54;20316;-80
2022/08/28 21:56:25;;;;;;;4.30;4.00;;;15.60;79.20;;;;;;2615988;54;20154;-78
2022/08/28 22:02:13;;;;;;;5.20;4.80;;;15.50;85.60;;;;;;2617538;54;20396;-79
2022/08/28 22:08:01;;;;;;;4.83;4.53;;;15.50;88.80;;;;;;2616981;54;20122;-79
2022/08/28 22:11:18;;;;;;;5.33;4.60;;;15.40;89.90;;;;;;2616321;54;20412;-78
2022/08/28 22:13:44;;;;;;;5.07;4.60;;;15.50;90.70;;;;;;2617052;54;20156;-77
2022/08/28 22:19:32;;;;;;;6.07;4.70;;;15.40;90.20;;;;;;2617277;54;20492;-78
2022/08/28 22:25:19;;;;;;;4.90;4.60;;;15.20;91.90;;;;;;2617361;54;20673;-78
2022/08/28 22:31:07;;;;;;;5.30;4.90;;;15.00;97.20;;;;;;2617322;54;20135;-78
2022/08/28 22:36:55;;;;;;;5.60;4.90;;;14.80;99.90;;;;;;2617880;54;20176;-77
2022/08/28 22:42:43;;;;;;;5.23;4.90;;;14.60;99.90;;;;;;2617181;54;20161;-79
2022/08/28 22:48:31;;;;;;;5.23;4.70;;;14.60;99.90;;;;;;2617905;54;20122;-78
2022/08/28 22:54:18;;;;;;;6.23;5.43;;;14.50;99.90;;;;;;2616864;54;20131;-77
2022/08/28 23:00:12;;;;;;;5.80;4.90;;;14.30;99.90;;;;;;2617767;54;20171;-81
2022/08/28 23:05:59;;;;;;;5.07;4.67;;;14.30;99.90;;;;;;2617352;54;20400;-78
2022/08/28 23:15:50;;;;;;;5.37;4.47;;;14.40;99.90;;;;;;2617314;54;20486;-78
2022/08/28 23:21:38;;;;;;;6.53;4.90;;;14.10;99.90;;;;;;2617096;54;20495;-78
2022/08/28 23:27:27;;;;;;;5.07;4.67;;;14.10;99.90;;;;;;2618201;54;20121;-78
2022/08/28 23:33:15;;;;;;;6.07;4.13;;;13.80;99.90;;;;;;2616958;54;20387;-80
2022/08/28 23:39:04;;;;;;;5.87;5.07;;;13.80;99.90;;;;;;2617226;54;20978;-78
2022/08/28 23:44:52;;;;;;;5.37;4.97;;;13.80;99.90;;;;;;2616988;54;20428;-75
2022/08/28 23:50:41;;;;;;;5.17;4.80;;;13.80;99.90;;;;;;2616597;54;20675;-79
2022/08/28 23:56:29;;;;;;;5.43;4.43;;;13.50;99.90;;;;;;2616945;39;20792;-77
